TOCTM weather

Public forecast

Using degrees Celsius for public forecast. Weather courtesy of forecast.io.

Closest aviation weather report (METAR) to Club Volo Ultraleggeri del Canavese

Closest report is Turin Airport, 9.9 nm (18.4 km) SSW. Retrieved 2020/08/11 13:20 UTC (1 minute ago):

LIMF 111320Z VRB02KT 9999 FEW060 31/17 Q1016

Closest aviation forecast (TAF) to Club Volo Ultraleggeri del Canavese

Closest forecast is Turin Airport, 9.9 nm (18.4 km) SSW. Retrieved 2020/08/11 12:26 UTC (55 minutes ago):

TAF LIMF 111100Z 1112/1212 VRB05KT 9999 FEW030 PROB30 TEMPO 1112/1118 TSRA